createdAt,value
2023-05-22T00:00:44.794Z,92675.00
2023-05-22T00:01:44.797Z,92671.00
2023-05-22T00:02:44.937Z,92671.00
2023-05-22T00:03:44.825Z,92673.00
2023-05-22T00:04:44.842Z,92673.00
2023-05-22T00:05:44.837Z,92673.00
2023-05-22T00:06:44.858Z,92675.00
2023-05-22T00:07:44.871Z,92675.00
2023-05-22T00:08:44.961Z,92675.00
2023-05-22T00:09:44.908Z,92675.00
2023-05-22T00:10:44.920Z,92673.00
2023-05-22T00:11:44.921Z,92673.00
2023-05-22T00:12:45.040Z,92675.00
2023-05-22T00:13:44.959Z,92675.00
2023-05-22T00:14:44.978Z,92675.00
2023-05-22T00:15:44.990Z,92675.00
2023-05-22T00:16:45.005Z,92679.00
2023-05-22T00:17:45.057Z,92679.00
2023-05-22T00:18:45.063Z,92679.00
2023-05-22T00:19:45.569Z,92679.00
2023-05-22T00:20:45.117Z,92681.00
2023-05-22T00:21:45.057Z,92679.00
2023-05-22T00:22:45.087Z,92679.00
2023-05-22T00:23:45.138Z,92673.00
2023-05-22T00:24:45.105Z,92679.00
2023-05-22T00:25:45.127Z,92671.00
2023-05-22T00:26:45.148Z,92673.00
2023-05-22T00:27:45.238Z,92671.00
2023-05-22T00:28:45.184Z,92671.00
2023-05-22T00:29:45.187Z,92671.00
2023-05-22T00:30:45.207Z,92671.00
2023-05-22T00:31:45.228Z,92669.00
2023-05-22T00:32:45.313Z,92671.00
2023-05-22T00:33:45.260Z,92671.00
2023-05-22T00:34:45.326Z,92669.00
2023-05-22T00:35:45.264Z,92675.00
2023-05-22T00:36:45.273Z,92677.00
2023-05-22T00:37:45.346Z,92677.00
2023-05-22T00:38:45.305Z,92677.00
2023-05-22T00:39:45.328Z,92675.00
2023-05-22T00:40:45.332Z,92679.00
2023-05-22T00:41:45.349Z,92677.00
2023-05-22T00:42:45.407Z,92675.00
2023-05-22T00:43:45.356Z,92675.00
2023-05-22T00:44:45.365Z,92677.00
2023-05-22T00:45:45.366Z,92675.00
2023-05-22T00:46:45.438Z,92675.00
2023-05-22T00:47:45.602Z,92673.00
2023-05-22T00:48:45.406Z,92675.00
2023-05-22T00:49:45.408Z,92671.00
2023-05-22T00:50:45.419Z,92675.00
2023-05-22T00:51:45.420Z,92673.00
2023-05-22T00:52:45.431Z,92673.00
2023-05-22T00:53:45.438Z,92675.00
2023-05-22T00:54:45.442Z,92675.00
2023-05-22T00:55:45.451Z,92673.00
2023-05-22T00:56:45.461Z,92677.00
2023-05-22T00:57:45.471Z,92673.00
2023-05-22T00:58:45.466Z,92675.00
2023-05-22T00:59:45.471Z,92675.00
2023-05-22T01:00:45.541Z,92679.00
2023-05-22T01:01:45.530Z,92679.00
2023-05-22T01:02:45.679Z,92677.00
2023-05-22T01:03:45.684Z,92677.00
2023-05-22T01:04:45.494Z,92677.00
2023-05-22T01:05:45.494Z,92675.00
2023-05-22T01:06:45.513Z,92675.00
2023-05-22T01:07:45.574Z,92679.00
2023-05-22T01:08:45.521Z,92679.00
2023-05-22T01:09:45.532Z,92679.00
2023-05-22T01:10:45.554Z,92679.00
2023-05-22T01:11:45.565Z,92681.00
2023-05-22T01:12:45.571Z,92679.00
2023-05-22T01:13:45.586Z,92679.00
2023-05-22T01:14:45.589Z,92681.00
2023-05-22T01:15:45.583Z,92679.00
2023-05-22T01:16:45.661Z,92681.00
2023-05-22T01:17:45.626Z,92681.00
2023-05-22T01:18:45.635Z,92679.00
2023-05-22T01:19:45.589Z,92679.00
2023-05-22T01:20:47.727Z,92677.00
2023-05-22T01:21:45.572Z,92679.00
2023-05-22T01:22:45.573Z,92677.00
2023-05-22T01:23:45.564Z,92679.00
2023-05-22T01:24:45.561Z,92679.00
2023-05-22T01:25:45.606Z,92677.00
2023-05-22T01:26:45.555Z,92681.00
2023-05-22T01:27:45.509Z,92675.00
2023-05-22T01:28:45.555Z,92677.00
2023-05-22T01:29:45.472Z,92681.00
2023-05-22T01:30:45.468Z,92677.00
2023-05-22T01:31:45.452Z,92677.00
2023-05-22T01:32:45.667Z,92675.00
2023-05-22T01:33:45.500Z,92673.00
2023-05-22T01:34:45.412Z,92673.00
2023-05-22T01:35:45.394Z,92671.00
2023-05-22T01:36:45.378Z,92677.00
2023-05-22T01:37:45.365Z,92677.00
2023-05-22T01:38:45.345Z,92677.00
2023-05-22T01:39:45.327Z,92679.00
2023-05-22T01:40:45.318Z,92677.00
2023-05-22T01:41:45.304Z,92675.00
2023-05-22T01:42:45.333Z,92675.00
2023-05-22T01:43:45.275Z,92671.00
2023-05-22T01:44:45.254Z,92673.00
2023-05-22T01:45:45.271Z,92675.00
2023-05-22T01:46:45.311Z,92677.00
2023-05-22T01:47:45.316Z,92677.00
2023-05-22T01:48:45.198Z,92679.00
2023-05-22T01:49:45.197Z,92677.00
2023-05-22T01:50:46.095Z,92677.00
2023-05-22T01:51:45.169Z,92681.00
2023-05-22T01:52:45.147Z,92683.00
2023-05-22T01:53:45.175Z,92681.00
2023-05-22T01:54:45.122Z,92683.00
2023-05-22T01:55:45.114Z,92683.00
2023-05-22T01:56:45.103Z,92683.00
2023-05-22T01:57:45.093Z,92681.00
2023-05-22T01:58:45.083Z,92681.00
2023-05-22T01:59:45.101Z,92683.00
2023-05-22T02:00:45.065Z,92683.00
2023-05-22T02:01:45.104Z,92683.00
2023-05-22T02:02:45.656Z,92681.00
2023-05-22T02:03:45.067Z,92681.00
2023-05-22T02:04:45.057Z,92681.00
2023-05-22T02:05:45.012Z,92681.00
2023-05-22T02:06:44.985Z,92681.00
2023-05-22T02:07:44.986Z,92683.00
2023-05-22T02:08:44.968Z,92685.00
2023-05-22T02:09:44.955Z,92687.00
2023-05-22T02:10:44.946Z,92691.00
2023-05-22T02:11:44.930Z,92693.00
2023-05-22T02:12:45.016Z,92693.00
2023-05-22T02:13:44.906Z,92695.00
2023-05-22T02:14:44.897Z,92695.00
2023-05-22T02:15:44.960Z,92693.00
2023-05-22T02:16:44.875Z,92693.00
2023-05-22T02:17:44.905Z,92693.00
2023-05-22T02:18:44.944Z,92693.00
2023-05-22T02:19:44.849Z,92691.00
2023-05-22T02:20:44.843Z,92691.00
2023-05-22T02:21:44.835Z,92693.00
2023-05-22T02:22:44.907Z,92695.00
2023-05-22T02:23:44.817Z,92697.00
2023-05-22T02:24:44.848Z,92699.00
2023-05-22T02:25:44.804Z,92693.00
2023-05-22T02:26:44.793Z,92695.00
2023-05-22T02:27:44.787Z,92695.00
2023-05-22T02:28:44.776Z,92693.00
2023-05-22T02:29:44.766Z,92693.00
2023-05-22T02:30:44.759Z,92695.00
2023-05-22T02:31:44.929Z,92693.00
2023-05-22T02:32:44.785Z,92697.00
2023-05-22T02:33:44.755Z,92695.00
2023-05-22T02:34:44.728Z,92697.00
2023-05-22T02:35:44.852Z,92699.00
2023-05-22T02:36:44.708Z,92697.00
2023-05-22T02:37:44.703Z,92693.00
2023-05-22T02:38:44.694Z,92695.00
2023-05-22T02:39:44.690Z,92697.00
2023-05-22T02:40:44.677Z,92699.00
2023-05-22T02:41:44.670Z,92699.00
2023-05-22T02:42:44.666Z,92701.00
2023-05-22T02:43:44.674Z,92701.00
2023-05-22T02:44:44.632Z,92703.00
2023-05-22T02:45:44.647Z,92703.00
2023-05-22T02:46:44.678Z,92705.00
2023-05-22T02:47:45.132Z,92705.00
2023-05-22T02:48:44.615Z,92701.00
2023-05-22T02:49:44.599Z,92705.00
2023-05-22T02:50:44.606Z,92703.00
2023-05-22T02:51:44.588Z,92703.00
2023-05-22T02:52:44.605Z,92703.00
2023-05-22T02:53:44.576Z,92703.00
2023-05-22T02:54:44.576Z,92705.00
2023-05-22T02:55:44.566Z,92705.00
2023-05-22T02:56:44.563Z,92707.00
2023-05-22T02:57:44.546Z,92701.00
2023-05-22T02:58:44.554Z,92703.00
2023-05-22T02:59:44.529Z,92703.00
2023-05-22T03:00:44.511Z,92701.00
2023-05-22T03:01:44.602Z,92699.00
2023-05-22T03:02:44.633Z,92699.00
2023-05-22T03:03:44.629Z,92699.00
2023-05-22T03:04:44.444Z,92699.00
2023-05-22T03:05:44.450Z,92699.00
2023-05-22T03:06:51.961Z,92699.00
2023-05-22T03:07:46.015Z,92697.00
2023-05-22T03:08:44.473Z,92695.00
2023-05-22T03:09:44.469Z,92695.00
2023-05-22T03:10:44.445Z,92695.00
2023-05-22T03:11:44.439Z,92695.00
2023-05-22T03:12:44.419Z,92695.00
2023-05-22T03:13:44.417Z,92695.00
2023-05-22T03:14:44.393Z,92695.00
2023-05-22T03:15:44.399Z,92697.00
2023-05-22T03:16:44.556Z,92699.00
2023-05-22T03:17:44.389Z,92697.00
2023-05-22T03:18:44.430Z,92695.00
2023-05-22T03:19:44.337Z,92695.00
2023-05-22T03:20:44.319Z,92697.00
2023-05-22T03:21:44.378Z,92697.00
2023-05-22T03:22:44.310Z,92695.00
2023-05-22T03:23:45.135Z,92697.00
2023-05-22T03:24:44.293Z,92697.00
2023-05-22T03:25:44.273Z,92697.00
2023-05-22T03:26:44.256Z,92693.00
2023-05-22T03:27:44.247Z,92695.00
2023-05-22T03:28:44.266Z,92697.00
2023-05-22T03:29:44.217Z,92695.00
2023-05-22T03:30:44.232Z,92697.00
2023-05-22T03:31:44.190Z,92697.00
2023-05-22T03:32:44.244Z,92691.00
2023-05-22T03:33:44.235Z,92693.00
2023-05-22T03:34:44.144Z,92693.00
2023-05-22T03:35:44.145Z,92697.00
2023-05-22T03:36:44.144Z,92695.00
2023-05-22T03:37:44.132Z,92695.00
2023-05-22T03:38:44.129Z,92693.00
2023-05-22T03:39:44.115Z,92693.00
2023-05-22T03:40:44.114Z,92689.00
2023-05-22T03:41:44.096Z,92693.00
2023-05-22T03:42:44.093Z,92693.00
2023-05-22T03:43:45.160Z,92693.00
2023-05-22T03:44:44.070Z,92693.00
2023-05-22T03:45:44.134Z,92693.00
2023-05-22T03:46:44.055Z,92691.00
2023-05-22T03:47:44.061Z,92689.00
2023-05-22T03:48:44.036Z,92687.00
2023-05-22T03:49:44.041Z,92689.00
2023-05-22T03:50:44.010Z,92687.00
2023-05-22T03:51:44.010Z,92689.00
2023-05-22T03:52:44.011Z,92687.00
2023-05-22T03:53:43.987Z,92683.00
2023-05-22T03:54:43.971Z,92685.00
2023-05-22T03:55:43.970Z,92685.00
2023-05-22T03:56:43.965Z,92685.00
2023-05-22T03:57:43.949Z,92685.00
2023-05-22T03:58:43.941Z,92683.00
2023-05-22T03:59:43.933Z,92681.00
2023-05-22T04:00:43.930Z,92681.00
2023-05-22T04:01:43.945Z,92683.00
2023-05-22T04:02:44.005Z,92681.00
2023-05-22T04:03:43.987Z,92683.00
2023-05-22T04:04:43.924Z,92685.00
2023-05-22T04:05:43.919Z,92683.00
2023-05-22T04:06:43.954Z,92683.00
2023-05-22T04:07:43.968Z,92683.00
2023-05-22T04:08:43.989Z,92685.00
2023-05-22T04:09:44.017Z,92683.00
2023-05-22T04:10:44.039Z,92685.00
2023-05-22T04:11:44.050Z,92685.00
2023-05-22T04:12:44.074Z,92683.00
2023-05-22T04:13:44.100Z,92683.00
2023-05-22T04:14:44.127Z,92683.00
2023-05-22T04:15:44.172Z,92687.00
2023-05-22T04:16:44.163Z,92685.00
2023-05-22T04:17:44.235Z,92685.00
2023-05-22T04:18:44.253Z,92685.00
2023-05-22T04:19:44.207Z,92685.00
2023-05-22T04:20:44.225Z,92685.00
2023-05-22T04:21:44.257Z,92687.00
2023-05-22T04:22:44.271Z,92687.00
2023-05-22T04:23:44.277Z,92689.00
2023-05-22T04:24:44.295Z,92691.00
2023-05-22T04:25:44.311Z,92691.00
2023-05-22T04:26:44.321Z,92693.00
2023-05-22T04:27:44.351Z,92691.00
2023-05-22T04:28:44.371Z,92689.00
2023-05-22T04:29:44.374Z,92689.00
2023-05-22T04:30:44.395Z,92689.00
2023-05-22T04:31:44.466Z,92693.00
2023-05-22T04:32:44.502Z,92695.00
2023-05-22T04:33:44.468Z,92693.00
2023-05-22T04:34:44.486Z,92695.00
2023-05-22T04:35:44.515Z,92697.00
2023-05-22T04:36:44.526Z,92697.00
2023-05-22T04:37:44.567Z,92697.00
2023-05-22T04:38:44.576Z,92699.00
2023-05-22T04:39:44.596Z,92697.00
2023-05-22T04:40:44.618Z,92699.00
2023-05-22T04:41:44.649Z,92699.00
2023-05-22T04:42:44.730Z,92699.00
2023-05-22T04:43:44.696Z,92699.00
2023-05-22T04:44:44.704Z,92701.00
2023-05-22T04:45:44.722Z,92701.00
2023-05-22T04:46:44.808Z,92701.00
2023-05-22T04:47:44.829Z,92701.00
2023-05-22T04:48:44.786Z,92705.00
2023-05-22T04:49:44.802Z,92703.00
2023-05-22T04:50:44.818Z,92705.00
2023-05-22T04:51:44.832Z,92703.00
2023-05-22T04:52:44.854Z,92707.00
2023-05-22T04:53:44.856Z,92708.00
2023-05-22T04:54:44.882Z,92710.00
2023-05-22T04:55:44.899Z,92712.00
2023-05-22T04:56:44.913Z,92710.00
2023-05-22T04:57:44.933Z,92712.00
2023-05-22T04:58:44.964Z,92714.00
2023-05-22T04:59:45.021Z,92712.00
2023-05-22T05:00:45.029Z,92712.00
2023-05-22T05:01:45.073Z,92712.00
2023-05-22T05:02:45.104Z,92712.00
2023-05-22T05:03:45.105Z,92714.00
2023-05-22T05:04:45.082Z,92716.00
2023-05-22T05:05:45.108Z,92716.00
2023-05-22T05:06:45.118Z,92716.00
2023-05-22T05:07:45.905Z,92714.00
2023-05-22T05:08:45.345Z,92714.00
2023-05-22T05:09:45.167Z,92718.00
2023-05-22T05:10:45.182Z,92718.00
2023-05-22T05:11:45.214Z,92718.00
2023-05-22T05:12:45.248Z,92716.00
2023-05-22T05:13:45.242Z,92716.00
2023-05-22T05:14:45.273Z,92716.00
2023-05-22T05:15:45.283Z,92718.00
2023-05-22T05:16:45.317Z,92718.00
2023-05-22T05:17:45.382Z,92714.00
2023-05-22T05:18:45.365Z,92716.00
2023-05-22T05:19:45.378Z,92718.00
2023-05-22T05:20:45.395Z,92714.00
2023-05-22T05:21:45.419Z,92716.00
2023-05-22T05:22:45.472Z,92716.00
2023-05-22T05:23:45.446Z,92718.00
2023-05-22T05:24:45.528Z,92718.00
2023-05-22T05:25:45.507Z,92712.00
2023-05-22T05:26:45.493Z,92710.00
2023-05-22T05:27:45.521Z,92710.00
2023-05-22T05:28:45.541Z,92708.00
2023-05-22T05:29:45.526Z,92710.00
2023-05-22T05:30:45.546Z,92712.00
2023-05-22T05:31:45.612Z,92710.00
2023-05-22T05:32:45.617Z,92707.00
2023-05-22T05:33:45.584Z,92707.00
2023-05-22T05:34:45.602Z,92703.00
2023-05-22T05:35:45.579Z,92705.00
2023-05-22T05:36:45.561Z,92703.00
2023-05-22T05:37:45.543Z,92701.00
2023-05-22T05:38:45.530Z,92697.00
2023-05-22T05:39:45.520Z,92703.00
2023-05-22T05:40:45.595Z,92701.00
2023-05-22T05:41:45.493Z,92699.00
2023-05-22T05:42:45.477Z,92701.00
2023-05-22T05:43:45.473Z,92697.00
2023-05-22T05:44:45.454Z,92699.00
2023-05-22T05:45:45.483Z,92701.00
2023-05-22T05:46:45.478Z,92699.00
2023-05-22T05:47:45.566Z,92697.00
2023-05-22T05:48:45.499Z,92697.00
2023-05-22T05:49:45.556Z,92695.00
2023-05-22T05:50:45.591Z,92697.00
2023-05-22T05:51:45.591Z,92693.00
2023-05-22T05:52:45.658Z,92699.00
2023-05-22T05:53:45.652Z,92697.00
2023-05-22T05:54:46.178Z,92693.00
2023-05-22T05:55:45.757Z,92693.00
2023-05-22T05:56:48.806Z,92693.00
2023-05-22T05:57:45.769Z,92693.00
2023-05-22T05:58:45.680Z,92693.00
2023-05-22T05:59:45.666Z,92691.00
2023-05-22T06:00:45.632Z,92693.00
2023-05-22T06:01:46.771Z,92691.00
2023-05-22T06:02:50.750Z,92691.00
2023-05-22T06:03:45.805Z,92691.00
2023-05-22T06:04:45.585Z,92689.00
2023-05-22T06:05:45.704Z,92697.00
2023-05-22T06:06:45.593Z,92693.00
2023-05-22T06:07:45.690Z,92697.00
2023-05-22T06:08:45.616Z,92697.00
2023-05-22T06:09:46.575Z,92697.00
2023-05-22T06:10:45.538Z,92695.00
2023-05-22T06:11:45.522Z,92693.00
2023-05-22T06:12:45.509Z,92697.00
2023-05-22T06:13:45.463Z,92697.00
2023-05-22T06:14:45.422Z,92701.00
2023-05-22T06:15:45.468Z,92701.00
2023-05-22T06:16:45.388Z,92697.00
2023-05-22T06:17:45.359Z,92697.00
2023-05-22T06:18:45.398Z,92699.00
2023-05-22T06:19:45.265Z,92695.00
2023-05-22T06:20:45.231Z,92693.00
2023-05-22T06:21:45.199Z,92693.00
2023-05-22T06:22:45.165Z,92697.00
2023-05-22T06:23:45.130Z,92693.00
2023-05-22T06:24:45.103Z,92693.00
2023-05-22T06:25:45.083Z,92693.00
2023-05-22T06:26:45.067Z,92691.00
2023-05-22T06:27:45.020Z,92693.00
2023-05-22T06:28:45.005Z,92689.00
2023-05-22T06:29:44.958Z,92687.00
2023-05-22T06:30:45.169Z,92689.00
2023-05-22T06:31:45.051Z,92687.00
2023-05-22T06:32:45.159Z,92683.00
2023-05-22T06:33:45.114Z,92685.00
2023-05-22T06:34:45.072Z,92683.00
2023-05-22T06:35:45.091Z,92685.00
2023-05-22T06:36:45.117Z,92681.00
2023-05-22T06:37:45.135Z,92683.00
2023-05-22T06:38:45.161Z,92685.00
2023-05-22T06:39:45.183Z,92679.00
2023-05-22T06:40:45.512Z,92679.00
2023-05-22T06:41:45.233Z,92679.00
2023-05-22T06:42:45.260Z,92679.00
2023-05-22T06:43:45.277Z,92675.00
2023-05-22T06:44:45.338Z,92675.00
2023-05-22T06:45:45.396Z,92673.00
2023-05-22T06:46:45.357Z,92671.00
2023-05-22T06:47:45.420Z,92673.00
2023-05-22T06:48:45.411Z,92671.00
2023-05-22T06:49:45.445Z,92669.00
2023-05-22T06:50:45.468Z,92669.00
2023-05-22T06:51:45.493Z,92667.00
2023-05-22T06:52:45.529Z,92665.00
2023-05-22T06:53:45.562Z,92663.00
2023-05-22T06:54:45.602Z,92661.00
2023-05-22T06:55:45.631Z,92658.00
2023-05-22T06:56:45.656Z,92660.00
2023-05-22T06:57:45.688Z,92656.00
2023-05-22T06:58:45.708Z,92656.00
2023-05-22T06:59:45.731Z,92654.00
2023-05-22T07:00:45.755Z,92652.00
2023-05-22T07:01:45.823Z,92650.00
2023-05-22T07:02:45.843Z,92650.00
2023-05-22T07:03:45.868Z,92652.00
2023-05-22T07:04:45.892Z,92652.00
2023-05-22T07:05:45.926Z,92650.00
2023-05-22T07:06:45.966Z,92646.00
2023-05-22T07:07:45.991Z,92646.00
2023-05-22T07:08:45.946Z,92648.00
2023-05-22T07:09:45.919Z,92648.00
2023-05-22T07:10:46.644Z,92648.00
2023-05-22T07:11:45.859Z,92648.00
2023-05-22T07:12:45.834Z,92648.00
2023-05-22T07:13:45.807Z,92648.00
2023-05-22T07:14:45.783Z,92648.00
2023-05-22T07:15:46.744Z,92652.00
2023-05-22T07:16:45.761Z,92646.00
2023-05-22T07:17:45.784Z,92648.00
2023-05-22T07:18:45.774Z,92644.00
2023-05-22T07:19:45.786Z,92648.00
2023-05-22T07:20:45.822Z,92644.00
2023-05-22T07:21:45.875Z,92646.00
2023-05-22T07:22:45.898Z,92644.00
2023-05-22T07:23:45.923Z,92642.00
2023-05-22T07:24:45.915Z,92642.00
2023-05-22T07:25:45.939Z,92642.00
2023-05-22T07:26:45.993Z,92644.00
2023-05-22T07:27:47.047Z,92640.00
2023-05-22T07:28:46.655Z,92640.00
2023-05-22T07:29:46.086Z,92640.00
2023-05-22T07:30:46.128Z,92634.00
2023-05-22T07:31:46.202Z,92638.00
2023-05-22T07:32:46.187Z,92634.00
2023-05-22T07:33:46.221Z,92634.00
2023-05-22T07:34:46.246Z,92634.00
2023-05-22T07:35:46.306Z,92632.00
2023-05-22T07:36:46.317Z,92632.00
2023-05-22T07:37:46.345Z,92634.00
2023-05-22T07:38:46.374Z,92630.00
2023-05-22T07:39:46.413Z,92630.00
2023-05-22T07:40:46.420Z,92630.00
2023-05-22T07:41:46.472Z,92628.00
2023-05-22T07:42:46.512Z,92626.00
2023-05-22T07:43:46.543Z,92626.00
2023-05-22T07:44:46.566Z,92626.00
2023-05-22T07:45:46.618Z,92622.00
2023-05-22T07:46:46.655Z,92622.00
2023-05-22T07:47:46.762Z,92620.00
2023-05-22T07:48:46.737Z,92620.00
2023-05-22T07:49:46.749Z,92626.00
2023-05-22T07:50:46.807Z,92620.00
2023-05-22T07:51:46.861Z,92624.00
2023-05-22T07:52:46.867Z,92624.00
2023-05-22T07:53:46.902Z,92620.00
2023-05-22T07:54:46.914Z,92620.00
2023-05-22T07:55:46.975Z,92620.00
2023-05-22T07:56:46.984Z,92614.00
2023-05-22T07:57:47.065Z,92616.00
2023-05-22T07:58:47.031Z,92616.00
2023-05-22T07:59:47.077Z,92610.00
2023-05-22T08:00:47.085Z,92610.00
2023-05-22T08:01:47.099Z,92612.00
2023-05-22T08:02:47.187Z,92606.00
2023-05-22T08:03:47.301Z,92606.00
2023-05-22T08:04:47.165Z,92606.00
2023-05-22T08:05:47.229Z,92603.00
2023-05-22T08:06:47.203Z,92601.00
2023-05-22T08:07:47.143Z,92591.00
2023-05-22T08:08:47.152Z,92597.00
2023-05-22T08:09:47.156Z,92597.00
2023-05-22T08:11:02.441Z,92597.00
2023-05-22T08:11:48.145Z,92597.00
2023-05-22T08:12:47.128Z,92593.00
2023-05-22T08:13:47.095Z,92593.00
2023-05-22T08:14:47.070Z,92595.00
2023-05-22T08:15:47.046Z,92593.00
2023-05-22T08:16:47.087Z,92591.00
2023-05-22T08:17:47.049Z,92583.00
2023-05-22T08:18:47.283Z,92583.00
2023-05-22T08:19:47.057Z,92583.00
2023-05-22T08:20:46.958Z,92581.00
2023-05-22T08:21:46.945Z,92581.00
2023-05-22T08:22:46.909Z,92577.00
2023-05-22T08:23:46.899Z,92577.00
2023-05-22T08:24:46.860Z,92576.00
2023-05-22T08:25:46.833Z,92579.00
2023-05-22T08:26:46.815Z,92574.00
2023-05-22T08:27:46.825Z,92577.00
2023-05-22T08:28:46.795Z,92574.00
2023-05-22T08:29:46.790Z,92574.00
2023-05-22T08:30:46.781Z,92574.00
2023-05-22T08:31:46.871Z,92574.00
2023-05-22T08:32:46.776Z,92570.00
2023-05-22T08:33:46.774Z,92572.00
2023-05-22T08:34:46.741Z,92568.00
2023-05-22T08:35:46.712Z,92570.00
2023-05-22T08:36:46.788Z,92568.00
2023-05-22T08:37:46.687Z,92572.00
2023-05-22T08:38:46.663Z,92568.00
2023-05-22T08:39:46.667Z,92570.00
2023-05-22T08:40:46.820Z,92568.00
2023-05-22T08:41:46.635Z,92566.00
2023-05-22T08:42:46.633Z,92566.00
2023-05-22T08:43:46.646Z,92568.00
2023-05-22T08:44:46.639Z,92564.00
2023-05-22T08:45:46.654Z,92564.00
2023-05-22T08:46:46.697Z,92566.00
2023-05-22T08:47:46.705Z,92562.00
2023-05-22T08:48:46.673Z,92560.00
2023-05-22T08:49:46.660Z,92558.00
2023-05-22T08:50:46.662Z,92560.00
2023-05-22T08:51:46.674Z,92552.00
2023-05-22T08:52:46.679Z,92554.00
2023-05-22T08:53:46.686Z,92550.00
2023-05-22T08:54:46.666Z,92550.00
2023-05-22T08:55:46.689Z,92546.00
2023-05-22T08:56:56.322Z,92546.00
2023-05-22T08:57:47.650Z,92544.00
2023-05-22T08:58:46.635Z,92548.00
2023-05-22T08:59:46.615Z,92544.00
2023-05-22T09:00:46.641Z,92544.00
2023-05-22T09:01:46.609Z,92546.00
2023-05-22T09:02:46.608Z,92546.00
2023-05-22T09:03:46.614Z,92542.00
2023-05-22T09:04:46.504Z,92542.00
2023-05-22T09:05:46.468Z,92542.00
2023-05-22T09:06:46.431Z,92538.00
2023-05-22T09:08:46.397Z,92536.00
2023-05-22T09:09:46.363Z,92536.00
2023-05-22T09:10:46.347Z,92532.00
2023-05-22T09:11:46.328Z,92532.00
2023-05-22T09:12:46.306Z,92528.00
2023-05-22T09:13:46.289Z,92530.00
2023-05-22T09:14:46.261Z,92528.00
2023-05-22T09:15:46.249Z,92528.00
2023-05-22T09:16:46.276Z,92524.00
2023-05-22T09:17:46.236Z,92522.00
2023-05-22T09:18:46.243Z,92522.00
2023-05-22T09:19:46.294Z,92524.00
2023-05-22T09:20:46.145Z,92522.00
2023-05-22T09:21:46.326Z,92522.00
2023-05-22T09:22:46.154Z,92522.00
2023-05-22T09:23:46.157Z,92522.00
2023-05-22T09:24:46.195Z,92521.00
2023-05-22T09:25:46.138Z,92521.00
2023-05-22T09:26:46.133Z,92521.00
2023-05-22T09:27:46.117Z,92519.00
2023-05-22T09:28:46.129Z,92521.00
2023-05-22T09:29:46.102Z,92519.00
2023-05-22T09:30:46.160Z,92517.00
2023-05-22T09:31:46.261Z,92519.00
2023-05-22T09:32:46.106Z,92521.00
2023-05-22T09:33:46.063Z,92519.00
2023-05-22T09:34:46.068Z,92519.00
2023-05-22T09:35:46.063Z,92519.00
2023-05-22T09:36:46.047Z,92521.00
2023-05-22T09:37:46.039Z,92519.00
2023-05-22T09:38:46.065Z,92521.00
2023-05-22T09:39:46.082Z,92521.00
2023-05-22T09:40:46.094Z,92519.00
2023-05-22T09:41:46.127Z,92515.00
2023-05-22T09:42:46.142Z,92513.00
2023-05-22T09:43:46.139Z,92515.00
2023-05-22T09:44:46.145Z,92515.00
2023-05-22T09:45:46.151Z,92513.00
2023-05-22T09:46:46.266Z,92517.00
2023-05-22T09:47:46.203Z,92513.00
2023-05-22T09:48:46.185Z,92509.00
2023-05-22T09:49:46.211Z,92509.00
2023-05-22T09:50:46.228Z,92511.00
2023-05-22T09:51:46.227Z,92509.00
2023-05-22T09:52:53.725Z,92509.00
2023-05-22T09:53:46.234Z,92511.00
2023-05-22T09:54:46.224Z,92509.00
2023-05-22T09:55:46.205Z,92509.00
2023-05-22T09:56:46.184Z,92507.00
2023-05-22T09:57:46.172Z,92503.00
2023-05-22T09:58:46.154Z,92507.00
2023-05-22T09:59:46.134Z,92505.00
2023-05-22T10:00:46.119Z,92503.00
2023-05-22T10:01:46.143Z,92501.00
2023-05-22T10:02:46.127Z,92499.00
2023-05-22T10:03:48.655Z,92499.00
2023-05-22T10:04:46.104Z,92499.00
2023-05-22T10:05:46.033Z,92499.00
2023-05-22T10:06:46.032Z,92499.00
2023-05-22T10:07:46.015Z,92499.00
2023-05-22T10:08:45.985Z,92497.00
2023-05-22T10:09:45.965Z,92497.00
2023-05-22T10:10:45.943Z,92497.00
2023-05-22T10:11:45.926Z,92493.00
2023-05-22T10:12:45.989Z,92495.00
2023-05-22T10:13:45.880Z,92489.00
2023-05-22T10:14:45.875Z,92491.00
2023-05-22T10:15:45.961Z,92489.00
2023-05-22T10:16:45.819Z,92487.00
2023-05-22T10:17:45.819Z,92485.00
2023-05-22T10:18:45.788Z,92483.00
2023-05-22T10:19:46.885Z,92481.00
2023-05-22T10:20:45.711Z,92481.00
2023-05-22T10:21:45.691Z,92483.00
2023-05-22T10:22:45.664Z,92477.00
2023-05-22T10:23:45.641Z,92477.00
2023-05-22T10:24:45.606Z,92475.00
2023-05-22T10:25:45.612Z,92477.00
2023-05-22T10:26:45.553Z,92474.00
2023-05-22T10:27:45.545Z,92474.00
2023-05-22T10:28:45.689Z,92472.00
2023-05-22T10:29:45.506Z,92470.00
2023-05-22T10:30:45.472Z,92470.00
2023-05-22T10:31:45.444Z,92468.00
2023-05-22T10:32:45.418Z,92470.00
2023-05-22T10:33:45.403Z,92472.00
2023-05-22T10:34:45.358Z,92468.00
2023-05-22T10:35:45.339Z,92466.00
2023-05-22T10:36:47.092Z,92466.00
2023-05-22T10:37:45.281Z,92468.00
2023-05-22T10:38:45.260Z,92466.00
2023-05-22T10:39:45.224Z,92462.00
2023-05-22T10:40:45.410Z,92464.00
2023-05-22T10:41:45.177Z,92462.00
2023-05-22T10:42:45.173Z,92462.00
2023-05-22T10:43:45.152Z,92460.00
2023-05-22T10:44:45.205Z,92460.00
2023-05-22T10:45:45.642Z,92458.00
2023-05-22T10:46:45.070Z,92458.00
2023-05-22T10:47:45.073Z,92454.00
2023-05-22T10:48:45.040Z,92458.00
2023-05-22T10:49:45.057Z,92454.00
2023-05-22T10:50:44.997Z,92454.00
2023-05-22T10:51:44.977Z,92448.00
2023-05-22T10:52:44.956Z,92448.00
2023-05-22T10:53:44.930Z,92448.00
2023-05-22T10:54:44.921Z,92448.00
2023-05-22T10:55:44.905Z,92450.00
2023-05-22T10:56:44.870Z,92444.00
2023-05-22T10:57:44.848Z,92442.00
2023-05-22T10:58:44.835Z,92442.00
2023-05-22T10:59:44.836Z,92440.00
2023-05-22T11:00:44.887Z,92440.00
2023-05-22T11:01:44.793Z,92440.00
2023-05-22T11:02:44.904Z,92436.00
2023-05-22T11:03:44.788Z,92436.00
2023-05-22T11:04:44.778Z,92438.00
2023-05-22T11:05:44.695Z,92438.00
2023-05-22T11:06:45.236Z,92430.00
2023-05-22T11:07:44.653Z,92428.00
2023-05-22T11:08:44.628Z,92430.00
2023-05-22T11:09:44.606Z,92426.00
2023-05-22T11:10:44.586Z,92426.00
2023-05-22T11:11:44.569Z,92424.00
2023-05-22T11:12:44.567Z,92424.00
2023-05-22T11:13:44.526Z,92426.00
2023-05-22T11:14:44.517Z,92424.00
2023-05-22T11:15:44.500Z,92424.00
2023-05-22T11:16:44.649Z,92426.00
2023-05-22T11:17:44.531Z,92424.00
2023-05-22T11:18:45.861Z,92426.00
2023-05-22T11:19:44.732Z,92426.00
2023-05-22T11:20:44.693Z,92424.00
2023-05-22T11:21:44.737Z,92424.00
2023-05-22T11:22:44.733Z,92419.00
2023-05-22T11:23:44.761Z,92419.00
2023-05-22T11:24:44.789Z,92415.00
2023-05-22T11:25:44.794Z,92417.00
2023-05-22T11:26:44.831Z,92415.00
2023-05-22T11:27:44.850Z,92415.00
2023-05-22T11:28:44.869Z,92413.00
2023-05-22T11:29:44.889Z,92407.00
2023-05-22T11:30:44.929Z,92411.00
2023-05-22T11:31:44.963Z,92411.00
2023-05-22T11:32:45.422Z,92409.00
2023-05-22T11:33:45.045Z,92409.00
2023-05-22T11:34:45.070Z,92415.00
2023-05-22T11:35:45.149Z,92411.00
2023-05-22T11:36:45.144Z,92409.00
2023-05-22T11:37:45.174Z,92407.00
2023-05-22T11:38:45.206Z,92409.00
2023-05-22T11:39:45.293Z,92405.00
2023-05-22T11:40:45.290Z,92407.00
2023-05-22T11:41:45.331Z,92409.00
2023-05-22T11:42:45.394Z,92405.00
2023-05-22T11:43:45.442Z,92401.00
2023-05-22T11:44:45.445Z,92409.00
2023-05-22T11:45:45.497Z,92403.00